JAL78KF RJFF-RJTT
Flight info
| Callsign | JAL78KF |
|---|---|
| Flight time | N/A |
| Altitude | 35000 |
| Route | IPRIR Y231 OMKAT Y235 FLUTE Y23 ARTIC Y71 XAC |
| Aircraft | B738/M-SDE2E3FGHIRWXY/LB1 |
Departure
| Time | 2026-05-07 15:05 |
|---|---|
| Airport | Fukuoka Airport (RJFF) |
Arrival
| Time | N/A |
|---|---|
| Airport | Tokyo Haneda International Airport (RJTT) |
| Time | Latitude | Longitude | Altitude | Speed | Heading |
|---|---|---|---|---|---|
| 2026-05-07 14:29 | 33.59040 | 130.45090 | 43 ft | 0 kts | 60° |
| 2026-05-07 14:50 | 33.59036 | 130.45081 | 43 ft | 2 kts | 60° |
| 2026-05-07 14:50 | 33.59029 | 130.45065 | 43 ft | 2 kts | 60° |
| 2026-05-07 14:51 | 33.59021 | 130.45048 | 43 ft | 2 kts | 60° |
| 2026-05-07 14:51 | 33.59014 | 130.45033 | 43 ft | 2 kts | 60° |
| 2026-05-07 14:51 | 33.59009 | 130.45018 | 43 ft | 2 kts | 106° |
| 2026-05-07 14:51 | 33.59014 | 130.45007 | 43 ft | 0 kts | 146° |
| 2026-05-07 14:52 | 33.59021 | 130.45004 | 43 ft | 1 kts | 151° |
| 2026-05-07 14:52 | 33.59022 | 130.45003 | 43 ft | 0 kts | 150° |
| 2026-05-07 14:55 | 33.58986 | 130.45027 | 43 ft | 15 kts | 150° |
| 2026-05-07 14:56 | 33.58855 | 130.45119 | 43 ft | 27 kts | 150° |
| 2026-05-07 14:56 | 33.58740 | 130.45197 | 43 ft | 11 kts | 150° |
| 2026-05-07 14:56 | 33.58684 | 130.45235 | 43 ft | 7 kts | 149° |
| 2026-05-07 14:56 | 33.58599 | 130.45293 | 43 ft | 23 kts | 149° |
| 2026-05-07 14:57 | 33.58454 | 130.45392 | 43 ft | 21 kts | 150° |
| 2026-05-07 14:57 | 33.58332 | 130.45476 | 43 ft | 20 kts | 150° |
| 2026-05-07 14:57 | 33.58188 | 130.45575 | 43 ft | 21 kts | 150° |
| 2026-05-07 14:57 | 33.58092 | 130.45639 | 43 ft | 14 kts | 150° |
| 2026-05-07 14:58 | 33.58019 | 130.45689 | 43 ft | 13 kts | 150° |
| 2026-05-07 14:58 | 33.57929 | 130.45750 | 43 ft | 14 kts | 149° |
| 2026-05-07 14:58 | 33.57842 | 130.45811 | 43 ft | 13 kts | 150° |
| 2026-05-07 14:58 | 33.57742 | 130.45879 | 43 ft | 14 kts | 152° |
| 2026-05-07 14:59 | 33.57729 | 130.45888 | 43 ft | 0 kts | 286° |
| 2026-05-07 14:59 | 33.57709 | 130.45850 | 43 ft | 13 kts | 229° |
| 2026-05-07 14:59 | 33.57682 | 130.45804 | 43 ft | 0 kts | 240° |
| 2026-05-07 15:03 | 33.57680 | 130.45799 | 43 ft | 3 kts | 243° |
| 2026-05-07 15:03 | 33.57675 | 130.45686 | 43 ft | 16 kts | 319° |
| 2026-05-07 15:03 | 33.57746 | 130.45647 | 43 ft | 0 kts | 329° |
| 2026-05-07 15:04 | 33.57796 | 130.45612 | 43 ft | 34 kts | 329° |
| 2026-05-07 15:04 | 33.58220 | 130.45323 | 43 ft | 103 kts | 329° |
| 2026-05-07 15:04 | 33.59024 | 130.44772 | 43 ft | 160 kts | 329° |
| 2026-05-07 15:04 | 33.60072 | 130.44069 | 381 ft | 175 kts | 331° |
| 2026-05-07 15:05 | 33.61124 | 130.43372 | 1059 ft | 175 kts | 327° |
| 2026-05-07 15:05 | 33.62190 | 130.42624 | 1621 ft | 186 kts | 324° |
| 2026-05-07 15:05 | 33.63429 | 130.41797 | 1775 ft | 223 kts | 332° |
| 2026-05-07 15:05 | 33.65065 | 130.41443 | 1683 ft | 252 kts | 5° |
| 2026-05-07 15:06 | 33.66692 | 130.42279 | 1711 ft | 264 kts | 40° |
| 2026-05-07 15:06 | 33.67858 | 130.44016 | 1724 ft | 275 kts | 59° |
| 2026-05-07 15:06 | 33.68532 | 130.46152 | 1670 ft | 272 kts | 85° |
| 2026-05-07 15:06 | 33.68379 | 130.48367 | 1696 ft | 265 kts | 109° |
| 2026-05-07 15:07 | 33.67671 | 130.50423 | 1697 ft | 267 kts | 121° |
| 2026-05-07 15:07 | 33.66540 | 130.52145 | 1675 ft | 260 kts | 144° |
| 2026-05-07 15:07 | 33.65014 | 130.53267 | 1705 ft | 256 kts | 155° |
| 2026-05-07 15:07 | 33.63374 | 130.54135 | 1696 ft | 257 kts | 161° |
| 2026-05-07 15:08 | 33.61725 | 130.54894 | 1981 ft | 245 kts | 161° |
| 2026-05-07 15:08 | 33.60144 | 130.55637 | 2472 ft | 250 kts | 160° |
| 2026-05-07 15:08 | 33.58563 | 130.56429 | 3467 ft | 245 kts | 160° |
| 2026-05-07 15:08 | 33.57046 | 130.57184 | 4595 ft | 239 kts | 161° |
| 2026-05-07 15:09 | 33.55471 | 130.57932 | 5311 ft | 249 kts | 161° |
| 2026-05-07 15:09 | 33.53836 | 130.58760 | 5971 ft | 262 kts | 160° |
| 2026-05-07 15:09 | 33.52120 | 130.59666 | 6473 ft | 275 kts | 160° |
| 2026-05-07 15:09 | 33.50344 | 130.60594 | 6970 ft | 281 kts | 160° |
| 2026-05-07 15:10 | 33.48518 | 130.61526 | 7464 ft | 283 kts | 161° |
| 2026-05-07 15:10 | 33.46704 | 130.62440 | 7945 ft | 286 kts | 161° |